Avon, Massachusetts
Current Conditions -  °F | °C
As of 6:53 PM on Wednesday 22 Oct 2014 (Local Time) from KOWD Reporting Station
Light Rain Light Rain  
Wind Chill: 52°   Ceiling: 800
Heat Index: 52°   Visibility: 2mi
Dew Point: 50°   Wind: 21mph
Humidity: 93%   Direction: 30°NNE
Pressure: 29.84"   Gusts: 31mph
Location:  42.13°N, 71.04°W
Report Text: KOWD 222253Z 03018G27KT 2SM -RA BR OVC008 11/10 A2984 RMK AO2 PK WND 03029/2222 CIG 006V010 SLP104 P0006 T01110100
Loading
Personal Weather Stations






























Interactive Weather Map
Tropical Storm Tracking
New forecast layout! Learn more

10-Day Weather Forecast

Advertisements
Track Severe Weather on mobile